ADDS TAF Data INFO
IDs: Format: Raw Decoded Include METARs

Data at: 0938 UTC 19 Jul 2018

KGUY 190853Z AUTO 15004KT 10SM CLR 23/18 A2996 RMK AO2 SLP090 T02280183 56009

KGUY 190542Z 1906/2006 VRB06KT P6SM FEW250
  FM192000 18010KT P6SM SCT100 BKN250
  FM200200 VRB06KT P6SM BKN250